Time;durP1;ratioP1;P1;durP2;ratioP2;P2;SDS_P1;SDS_P2;PMS_P1;PMS_P2;Temp;Humidity;BMP_temperature;BMP_pressure;BME280_temperature;BME280_humidity;BME280_pressure;Samples;Min_cycle;Max_cycle;Signal;HPM_P1;HPM_P2
2022/04/03 00:00:33;;;;;;;1.03;0.90;;;5.90;42.60;;;;;;5069103;28;20205;-41
2022/04/03 00:03:01;;;;;;;1.27;0.70;;;5.90;42.60;;;;;;5069274;28;20208;-45
2022/04/03 00:05:29;;;;;;;1.53;1.00;;;6.00;42.80;;;;;;5068770;28;20193;-44
2022/04/03 00:07:57;;;;;;;2.83;0.97;;;6.00;42.90;;;;;;5058654;28;20197;-43
2022/04/03 00:10:24;;;;;;;2.30;1.20;;;6.00;42.70;;;;;;5066816;28;20716;-45
2022/04/03 00:12:51;;;;;;;8.53;1.57;;;6.00;42.40;;;;;;5062834;28;20205;-44
2022/04/03 00:15:19;;;;;;;4.83;1.40;;;6.00;42.30;;;;;;5065514;28;21535;-40
2022/04/03 00:17:47;;;;;;;3.10;1.27;;;6.00;42.50;;;;;;5066038;28;20204;-47
2022/04/03 00:20:14;;;;;;;2.80;1.27;;;6.00;42.90;;;;;;5064764;28;20210;-45
2022/04/03 00:22:48;;;;;;;2.00;1.10;;;6.00;43.20;;;;;;5066019;28;20197;-42
2022/04/03 00:25:15;;;;;;;5.97;1.40;;;6.10;43.50;;;;;;5062440;28;20197;-42
2022/04/03 00:27:42;;;;;;;1.90;1.13;;;6.10;43.50;;;;;;5057499;28;20623;-44
2022/04/03 00:30:10;;;;;;;1.77;1.10;;;6.10;42.80;;;;;;5061070;28;20280;-44
2022/04/03 00:32:38;;;;;;;6.83;0.90;;;6.10;41.90;;;;;;5063399;28;20561;-42
2022/04/03 00:35:06;;;;;;;3.10;1.10;;;6.10;41.40;;;;;;5059375;28;20201;-43
2022/04/03 00:37:33;;;;;;;1.33;1.13;;;6.00;41.40;;;;;;5064028;28;20197;-43
2022/04/03 00:40:02;;;;;;;0.83;0.80;;;6.10;41.60;;;;;;5058597;28;20206;-42
2022/04/03 00:42:29;;;;;;;1.80;1.00;;;6.00;41.80;;;;;;5062714;28;20189;-41
2022/04/03 00:44:56;;;;;;;3.23;1.20;;;6.00;42.60;;;;;;5062990;28;20199;-41
2022/04/03 00:47:25;;;;;;;1.50;1.00;;;6.10;42.40;;;;;;5063053;28;20587;-42
2022/04/03 00:49:52;;;;;;;1.77;1.10;;;6.10;42.40;;;;;;5063110;28;20268;-41
2022/04/03 00:52:20;;;;;;;1.33;1.07;;;6.10;42.30;;;;;;5071169;28;20197;-45
2022/04/03 00:54:47;;;;;;;1.80;1.30;;;6.10;42.00;;;;;;5069782;28;20610;-42
2022/04/03 00:57:16;;;;;;;2.00;1.30;;;6.10;41.80;;;;;;5058565;28;20243;-42
2022/04/03 00:59:44;;;;;;;2.47;1.10;;;6.10;42.00;;;;;;5068372;28;20185;-41
2022/04/03 01:02:12;;;;;;;1.17;1.03;;;6.10;42.40;;;;;;5067772;28;20312;-43
2022/04/03 01:04:39;;;;;;;6.40;1.47;;;6.10;42.80;;;;;;5064566;28;20550;-45
2022/04/03 01:07:06;;;;;;;1.47;1.07;;;6.10;43.10;;;;;;5068248;28;20213;-45
2022/04/03 01:09:34;;;;;;;3.13;1.20;;;6.10;42.80;;;;;;5065516;28;20274;-42
2022/04/03 01:12:01;;;;;;;1.33;1.23;;;6.10;42.50;;;;;;5065868;28;20204;-41
2022/04/03 01:14:33;;;;;;;2.70;1.17;;;6.10;42.60;;;;;;5063895;28;20253;-43
2022/04/03 01:17:01;;;;;;;3.00;0.90;;;6.10;42.90;;;;;;5063988;28;20194;-43
2022/04/03 01:19:28;;;;;;;5.03;0.90;;;6.10;43.00;;;;;;5062472;28;20196;-45
2022/04/03 01:21:55;;;;;;;3.43;1.00;;;6.10;42.80;;;;;;5064595;28;20201;-41
2022/04/03 01:24:23;;;;;;;2.97;1.23;;;6.10;42.70;;;;;;5064058;28;20197;-42
2022/04/03 01:26:53;;;;;;;3.17;0.80;;;6.10;42.70;;;;;;5061003;28;20740;-42
2022/04/03 01:29:20;;;;;;;1.60;0.83;;;6.10;42.60;;;;;;5062847;28;20201;-41
2022/04/03 01:31:48;;;;;;;0.80;0.80;;;6.00;42.50;;;;;;5059087;28;20186;-42
2022/04/03 01:34:16;;;;;;;1.50;0.83;;;6.00;42.70;;;;;;5059610;28;20541;-43
2022/04/03 01:36:44;;;;;;;1.23;1.00;;;6.00;42.90;;;;;;5058578;28;20198;-42
2022/04/03 01:39:11;;;;;;;1.57;0.80;;;6.00;43.30;;;;;;5066759;28;20330;-45
2022/04/03 01:41:39;;;;;;;0.77;0.73;;;6.00;43.60;;;;;;5057383;28;20208;-43
2022/04/03 01:44:08;;;;;;;2.07;1.10;;;6.00;43.70;;;;;;5059355;28;20200;-42
2022/04/03 01:46:37;;;;;;;0.93;0.83;;;6.00;43.90;;;;;;5068645;28;20197;-43
2022/04/03 01:49:05;;;;;;;0.93;0.80;;;6.10;44.00;;;;;;5067437;28;20229;-42
2022/04/03 01:51:32;;;;;;;1.33;1.07;;;6.00;44.00;;;;;;5057427;28;20216;-44
2022/04/03 01:53:59;;;;;;;2.00;0.93;;;6.10;44.20;;;;;;5068899;28;20594;-41
2022/04/03 01:56:27;;;;;;;2.33;1.13;;;6.10;44.30;;;;;;5056778;28;20657;-43
2022/04/03 01:58:54;;;;;;;3.63;1.10;;;6.10;44.10;;;;;;5067988;28;20205;-41
2022/04/03 02:01:22;;;;;;;3.50;1.17;;;6.10;43.80;;;;;;5068396;28;20641;-52
2022/04/03 02:03:49;;;;;;;1.27;0.90;;;6.10;43.40;;;;;;5065746;28;20200;-51
2022/04/03 02:06:20;;;;;;;1.93;1.00;;;6.10;43.30;;;;;;5056876;28;20205;-51
2022/04/03 02:08:48;;;;;;;0.83;0.83;;;6.10;43.50;;;;;;5065827;28;20204;-48
2022/04/03 02:11:15;;;;;;;1.63;0.87;;;6.10;43.60;;;;;;5067186;28;20194;-53
2022/04/03 02:13:42;;;;;;;4.00;1.07;;;6.10;43.80;;;;;;5064740;28;20251;-49
2022/04/03 02:16:10;;;;;;;4.60;1.33;;;6.10;43.90;;;;;;5066238;28;20225;-52
2022/04/03 02:18:39;;;;;;;2.50;1.20;;;6.10;43.80;;;;;;5065269;28;20276;-44
2022/04/03 02:21:06;;;;;;;4.17;1.03;;;6.10;43.30;;;;;;5066079;28;20568;-43
2022/04/03 02:23:33;;;;;;;1.20;1.10;;;6.10;43.10;;;;;;5062301;28;20247;-44
2022/04/03 02:26:01;;;;;;;2.20;0.80;;;6.10;42.90;;;;;;5065146;28;20697;-44
2022/04/03 02:28:28;;;;;;;1.07;0.80;;;6.10;42.90;;;;;;5061336;28;20193;-43
2022/04/03 02:30:55;;;;;;;0.97;0.90;;;6.10;42.80;;;;;;5063467;28;20194;-42
2022/04/03 02:33:22;;;;;;;1.90;1.27;;;6.10;42.70;;;;;;5059066;28;20207;-42
2022/04/03 02:35:50;;;;;;;2.73;0.80;;;6.20;42.50;;;;;;5067343;28;20209;-42
2022/04/03 02:38:18;;;;;;;1.77;1.20;;;6.20;42.50;;;;;;5059077;28;20190;-44
2022/04/03 02:40:45;;;;;;;0.90;0.90;;;6.20;42.50;;;;;;5061694;28;20193;-43
2022/04/03 02:43:13;;;;;;;3.47;0.90;;;6.20;42.50;;;;;;5057760;28;20202;-42
2022/04/03 02:45:40;;;;;;;0.50;0.50;;;6.30;42.70;;;;;;5066572;28;20771;-47
2022/04/03 02:48:08;;;;;;;0.60;0.60;;;6.30;42.80;;;;;;5062380;28;20661;-42
2022/04/03 02:50:36;;;;;;;1.00;0.70;;;6.40;42.90;;;;;;5067818;28;20251;-43
2022/04/03 02:53:04;;;;;;;1.77;0.70;;;6.30;42.80;;;;;;5072410;28;20193;-42
2022/04/03 02:55:31;;;;;;;0.77;0.77;;;6.40;42.90;;;;;;5072135;28;20557;-43
2022/04/03 02:57:59;;;;;;;1.20;0.70;;;6.40;42.90;;;;;;5071011;28;20196;-42
2022/04/03 03:00:26;;;;;;;2.00;0.83;;;6.40;42.90;;;;;;5069875;28;20205;-44
2022/04/03 03:02:53;;;;;;;2.83;0.80;;;6.40;42.90;;;;;;5068660;28;20213;-42
2022/04/03 03:05:20;;;;;;;0.80;0.80;;;6.40;43.00;;;;;;5070589;28;20197;-44
2022/04/03 03:07:48;;;;;;;0.60;0.60;;;6.50;43.10;;;;;;5068231;28;20205;-45
2022/04/03 03:10:19;;;;;;;1.07;0.70;;;6.50;43.10;;;;;;5068705;28;20197;-42
2022/04/03 03:12:47;;;;;;;0.67;0.67;;;6.50;43.10;;;;;;5068414;28;20189;-45
2022/04/03 03:15:15;;;;;;;0.87;0.67;;;6.50;43.00;;;;;;5069040;28;20241;-45
2022/04/03 03:17:43;;;;;;;0.60;0.60;;;6.40;42.90;;;;;;5065541;28;20287;-40
2022/04/03 03:20:11;;;;;;;0.60;0.60;;;6.40;42.90;;;;;;5065862;28;20200;-41
2022/04/03 03:22:40;;;;;;;0.40;0.40;;;6.40;42.90;;;;;;5066638;28;20213;-41
2022/04/03 03:25:07;;;;;;;0.50;0.50;;;6.40;42.90;;;;;;5063244;28;20220;-43
2022/04/03 03:27:38;;;;;;;0.70;0.63;;;6.40;42.80;;;;;;5066073;28;20560;-44
2022/04/03 03:30:08;;;;;;;0.90;0.43;;;6.50;42.80;;;;;;5062874;28;20194;-42
2022/04/03 03:32:36;;;;;;;2.27;1.07;;;6.50;42.80;;;;;;5064873;28;20182;-42
2022/04/03 03:35:04;;;;;;;2.60;1.00;;;6.50;42.80;;;;;;5061487;28;20203;-47
2022/04/03 03:37:31;;;;;;;0.93;0.87;;;6.50;42.70;;;;;;5065116;28;20196;-43
2022/04/03 03:39:58;;;;;;;1.03;0.80;;;6.50;42.70;;;;;;5059832;28;20292;-41
2022/04/03 03:42:25;;;;;;;0.50;0.50;;;6.50;42.70;;;;;;5064057;28;20562;-42
2022/04/03 03:44:54;;;;;;;0.80;0.80;;;6.50;42.80;;;;;;5061176;28;20756;-43
2022/04/03 03:47:21;;;;;;;0.80;0.80;;;6.50;42.80;;;;;;5064158;28;20209;-44
2022/04/03 03:49:48;;;;;;;0.77;0.70;;;6.50;42.80;;;;;;5058592;28;20226;-42
2022/04/03 03:52:15;;;;;;;0.80;0.80;;;6.50;42.90;;;;;;5064746;28;20205;-44
2022/04/03 03:54:43;;;;;;;0.60;0.60;;;6.50;42.90;;;;;;5070573;28;20206;-42
2022/04/03 03:57:10;;;;;;;0.70;0.70;;;6.50;43.00;;;;;;5070969;28;20599;-46
2022/04/03 03:59:37;;;;;;;0.60;0.60;;;6.50;43.10;;;;;;5069416;28;20693;-46
2022/04/03 04:02:06;;;;;;;0.60;0.60;;;6.50;43.10;;;;;;5069385;28;20287;-42
2022/04/03 04:04:34;;;;;;;0.83;0.70;;;6.50;43.10;;;;;;5067882;28;20535;-42
2022/04/03 04:07:01;;;;;;;0.50;0.50;;;6.50;43.20;;;;;;5068664;28;20193;-44
2022/04/03 04:09:28;;;;;;;0.50;0.50;;;6.50;43.20;;;;;;5068966;28;20669;-42
2022/04/03 04:11:55;;;;;;;0.90;0.70;;;6.50;43.20;;;;;;5060486;28;20196;-47
2022/04/03 04:14:22;;;;;;;0.90;0.80;;;6.50;43.20;;;;;;5068449;28;20241;-41
2022/04/03 04:16:49;;;;;;;0.50;0.50;;;6.50;43.20;;;;;;5066750;28;20720;-42
2022/04/03 04:19:18;;;;;;;1.00;0.80;;;6.50;43.20;;;;;;5066089;28;20198;-42
2022/04/03 04:21:45;;;;;;;0.90;0.60;;;6.50;43.20;;;;;;5066192;28;20205;-47
2022/04/03 04:24:12;;;;;;;1.70;0.77;;;6.50;43.20;;;;;;5066553;28;20220;-43
2022/04/03 04:26:39;;;;;;;0.70;0.70;;;6.50;43.20;;;;;;5065068;28;20197;-42
2022/04/03 04:29:07;;;;;;;1.17;0.70;;;6.50;43.20;;;;;;5066368;28;20193;-42
2022/04/03 04:31:34;;;;;;;0.57;0.50;;;6.50;43.20;;;;;;5063612;28;20289;-43
2022/04/03 04:34:03;;;;;;;1.07;0.70;;;6.40;43.20;;;;;;5064178;28;20251;-42
2022/04/03 04:36:32;;;;;;;1.40;0.70;;;6.40;43.30;;;;;;5062906;28;20204;-41
2022/04/03 04:38:59;;;;;;;0.90;0.50;;;6.40;43.40;;;;;;5067287;28;20206;-42
2022/04/03 04:41:27;;;;;;;0.83;0.60;;;6.40;43.50;;;;;;5055925;28;20206;-42
2022/04/03 04:43:54;;;;;;;0.87;0.70;;;6.40;43.50;;;;;;5060790;28;20202;-42
2022/04/03 04:46:21;;;;;;;0.53;0.53;;;6.40;43.60;;;;;;5058451;28;20201;-42
2022/04/03 04:48:48;;;;;;;0.43;0.43;;;6.40;43.60;;;;;;5057400;28;20274;-42
2022/04/03 04:51:16;;;;;;;0.70;0.57;;;6.30;43.60;;;;;;5058450;28;20220;-43
2022/04/03 04:53:45;;;;;;;0.60;0.60;;;6.30;43.60;;;;;;5067535;28;20637;-42
2022/04/03 04:56:12;;;;;;;2.17;0.60;;;6.30;43.70;;;;;;5066486;28;20239;-43
2022/04/03 04:58:40;;;;;;;0.63;0.63;;;6.40;43.70;;;;;;5066679;28;20198;-43
2022/04/03 05:01:07;;;;;;;0.60;0.60;;;6.40;43.70;;;;;;5066866;28;20199;-42
2022/04/03 05:03:34;;;;;;;0.60;0.60;;;6.40;43.70;;;;;;5064243;28;20326;-44
2022/04/03 05:06:02;;;;;;;0.70;0.50;;;6.50;43.80;;;;;;5064253;28;20198;-45
2022/04/03 05:08:30;;;;;;;0.70;0.70;;;6.40;43.70;;;;;;5064224;28;20198;-41
2022/04/03 05:10:59;;;;;;;1.30;0.80;;;6.50;43.80;;;;;;5062204;28;20220;-43
2022/04/03 05:13:28;;;;;;;1.73;0.73;;;6.50;43.80;;;;;;5062781;28;20243;-44
2022/04/03 05:15:55;;;;;;;1.00;0.80;;;6.40;43.80;;;;;;5062353;28;20703;-43
2022/04/03 05:18:22;;;;;;;0.53;0.50;;;6.50;43.90;;;;;;5060640;28;20204;-44
2022/04/03 05:20:50;;;;;;;0.60;0.60;;;6.50;44.00;;;;;;5061866;28;20194;-41
2022/04/03 05:23:17;;;;;;;1.00;0.80;;;6.50;44.00;;;;;;5061117;28;20209;-42
2022/04/03 05:25:45;;;;;;;0.67;0.67;;;6.50;44.00;;;;;;5060768;28;20197;-43
2022/04/03 05:28:13;;;;;;;0.70;0.70;;;6.50;44.00;;;;;;5060172;28;20200;-43
2022/04/03 05:30:40;;;;;;;0.90;0.80;;;6.60;44.00;;;;;;5059893;28;20505;-46
2022/04/03 05:33:07;;;;;;;1.03;0.70;;;6.60;44.00;;;;;;5058924;28;20194;-45
2022/04/03 05:35:35;;;;;;;0.93;0.80;;;6.60;44.00;;;;;;5060399;28;20255;-44
2022/04/03 05:38:02;;;;;;;1.97;0.80;;;6.70;44.00;;;;;;5058489;28;20300;-46
2022/04/03 05:40:29;;;;;;;1.37;0.80;;;6.70;43.90;;;;;;5056950;28;20560;-51
2022/04/03 05:42:56;;;;;;;0.50;0.50;;;6.70;43.90;;;;;;5061659;28;20209;-48
2022/04/03 05:45:25;;;;;;;0.63;0.63;;;6.70;43.90;;;;;;5068263;28;20247;-48
2022/04/03 05:47:52;;;;;;;0.73;0.73;;;6.80;44.00;;;;;;5066508;28;20687;-48
2022/04/03 05:50:19;;;;;;;0.93;0.80;;;6.80;44.00;;;;;;5068269;28;20202;-49
2022/04/03 05:52:48;;;;;;;1.00;0.90;;;6.80;44.00;;;;;;5067534;28;20197;-49
2022/04/03 05:55:16;;;;;;;1.63;0.90;;;6.80;44.10;;;;;;5066830;28;20565;-43
2022/04/03 05:57:44;;;;;;;1.10;1.00;;;6.90;44.10;;;;;;5067577;28;20678;-47
2022/04/03 06:00:14;;;;;;;0.70;0.70;;;7.00;44.10;;;;;;5066528;28;20207;-43
2022/04/03 06:02:53;;;;;;;0.73;0.70;;;7.00;44.10;;;;;;5066423;28;20277;-43
2022/04/03 06:05:23;;;;;;;1.10;0.70;;;7.00;44.00;;;;;;5059607;28;20189;-42
2022/04/03 06:07:50;;;;;;;0.93;0.60;;;7.10;44.00;;;;;;5063864;28;20450;-43
2022/04/03 06:10:18;;;;;;;1.47;0.60;;;7.10;43.90;;;;;;5066999;28;20201;-42
2022/04/03 06:12:54;;;;;;;1.13;0.63;;;7.10;43.90;;;;;;5062121;28;20191;-42
2022/04/03 06:15:21;;;;;;;0.70;0.70;;;7.10;43.80;;;;;;5057901;28;20228;-46
2022/04/03 06:17:49;;;;;;;0.73;0.73;;;7.10;43.80;;;;;;5064199;28;20638;-43
2022/04/03 06:20:17;;;;;;;1.00;0.70;;;7.10;43.70;;;;;;5066561;28;20201;-45
2022/04/03 06:22:44;;;;;;;0.60;0.60;;;7.20;43.70;;;;;;5069053;28;20590;-42
2022/04/03 06:25:12;;;;;;;0.87;0.60;;;7.30;43.70;;;;;;5067807;28;20234;-47
2022/04/03 06:27:39;;;;;;;0.70;0.60;;;7.30;43.60;;;;;;5063080;28;20539;-41
2022/04/03 06:30:08;;;;;;;0.70;0.70;;;7.40;43.60;;;;;;5068003;28;20274;-42
2022/04/03 06:32:35;;;;;;;0.57;0.57;;;7.40;43.60;;;;;;5059938;28;20221;-42
2022/04/03 06:35:02;;;;;;;0.60;0.60;;;7.40;43.60;;;;;;5066753;28;20196;-43
2022/04/03 06:37:30;;;;;;;0.60;0.60;;;7.50;43.70;;;;;;5060251;28;20278;-45
2022/04/03 06:39:57;;;;;;;1.20;0.67;;;7.50;44.30;;;;;;5064735;28;20201;-42
2022/04/03 06:42:25;;;;;;;0.40;0.40;;;7.50;43.60;;;;;;5060392;28;20205;-43
2022/04/03 06:44:53;;;;;;;0.53;0.53;;;7.50;43.60;;;;;;5070807;28;20196;-45
2022/04/03 06:47:20;;;;;;;0.97;0.57;;;7.50;43.60;;;;;;5072715;28;20200;-42
2022/04/03 06:49:48;;;;;;;0.70;0.70;;;7.50;43.60;;;;;;5067677;28;20203;-42
2022/04/03 06:52:15;;;;;;;0.50;0.50;;;7.50;43.60;;;;;;5072493;28;20761;-43
2022/04/03 06:54:44;;;;;;;0.50;0.50;;;7.60;43.70;;;;;;5069373;28;20390;-42
2022/04/03 06:57:13;;;;;;;0.40;0.40;;;7.60;43.60;;;;;;5060184;28;20563;-46
2022/04/03 06:59:41;;;;;;;0.50;0.50;;;7.60;43.50;;;;;;5066636;28;20201;-45
2022/04/03 07:02:08;;;;;;;0.70;0.70;;;7.60;43.40;;;;;;5059665;28;20197;-42
2022/04/03 07:04:36;;;;;;;1.60;0.87;;;7.60;43.30;;;;;;5064764;28;20207;-42
2022/04/03 07:07:03;;;;;;;1.20;0.80;;;7.70;43.40;;;;;;5069348;28;20204;-46
2022/04/03 07:09:30;;;;;;;0.70;0.70;;;7.80;43.40;;;;;;5064608;28;20201;-44
2022/04/03 07:11:59;;;;;;;1.23;0.90;;;7.90;43.30;;;;;;5071529;28;20602;-42
2022/04/03 07:14:26;;;;;;;0.83;0.83;;;8.00;43.10;;;;;;5063323;28;20225;-42
2022/04/03 07:16:53;;;;;;;1.57;1.10;;;8.10;43.70;;;;;;5066416;28;20295;-47
2022/04/03 07:19:20;;;;;;;0.73;0.73;;;8.10;43.00;;;;;;5065531;28;20199;-43
2022/04/03 07:21:47;;;;;;;1.80;0.80;;;8.10;42.90;;;;;;5072941;28;20210;-48
2022/04/03 07:24:14;;;;;;;0.80;0.80;;;8.20;43.00;;;;;;5072090;28;20212;-47
2022/04/03 07:26:42;;;;;;;0.87;0.80;;;8.20;42.90;;;;;;5072729;28;20240;-44
2022/04/03 07:29:10;;;;;;;1.00;0.90;;;8.20;42.80;;;;;;5071787;28;20197;-45
2022/04/03 07:31:37;;;;;;;0.70;0.70;;;8.20;42.80;;;;;;5072020;28;20189;-42
2022/04/03 07:34:04;;;;;;;1.03;0.93;;;8.20;42.50;;;;;;5070648;28;20197;-47
2022/04/03 07:36:31;;;;;;;0.97;0.80;;;8.20;42.40;;;;;;5072550;28;20266;-49
2022/04/03 07:38:59;;;;;;;0.60;0.60;;;8.20;42.30;;;;;;5068926;28;20266;-48
2022/04/03 07:41:26;;;;;;;0.83;0.60;;;8.10;42.10;;;;;;5056712;28;20201;-43
2022/04/03 07:43:53;;;;;;;0.80;0.80;;;8.10;42.00;;;;;;5069645;28;20209;-44
2022/04/03 07:46:22;;;;;;;0.50;0.50;;;8.10;41.90;;;;;;5065419;28;20193;-42
2022/04/03 07:48:49;;;;;;;0.53;0.53;;;8.20;42.00;;;;;;5067167;28;20200;-42
2022/04/03 07:51:16;;;;;;;0.80;0.67;;;8.20;41.90;;;;;;5070673;28;20225;-42
2022/04/03 07:53:43;;;;;;;0.30;0.30;;;8.30;41.90;;;;;;5069737;28;20612;-45
2022/04/03 07:56:10;;;;;;;0.40;0.40;;;8.40;41.80;;;;;;5070011;28;20208;-44
2022/04/03 07:58:38;;;;;;;0.40;0.40;;;8.50;41.60;;;;;;5067752;28;20193;-43
2022/04/03 08:01:05;;;;;;;0.40;0.40;;;8.50;41.60;;;;;;5068319;28;20204;-44
2022/04/03 08:03:33;;;;;;;0.50;0.50;;;8.50;41.60;;;;;;5065186;28;20205;-44
2022/04/03 08:06:00;;;;;;;0.40;0.40;;;8.50;41.80;;;;;;5067894;28;20602;-43
2022/04/03 08:08:27;;;;;;;3.40;0.80;;;8.50;41.90;;;;;;5065575;28;20204;-42
2022/04/03 08:10:55;;;;;;;0.70;0.70;;;8.50;42.20;;;;;;5066239;28;20300;-43
2022/04/03 08:13:22;;;;;;;1.07;0.90;;;8.50;42.20;;;;;;5064126;28;20216;-44
2022/04/03 08:15:49;;;;;;;1.10;0.80;;;8.50;42.30;;;;;;5066189;28;20224;-42
2022/04/03 08:18:16;;;;;;;1.03;0.80;;;8.70;42.40;;;;;;5064818;28;20664;-42
2022/04/03 08:20:45;;;;;;;1.43;0.80;;;8.80;42.40;;;;;;5064153;28;20270;-44
2022/04/03 08:23:12;;;;;;;0.70;0.70;;;8.90;42.30;;;;;;5068123;28;20209;-46
2022/04/03 08:25:39;;;;;;;0.70;0.70;;;9.00;42.30;;;;;;5062696;28;20996;-46
2022/04/03 08:28:08;;;;;;;1.10;1.10;;;9.10;42.30;;;;;;5061445;28;20621;-44
2022/04/03 08:30:37;;;;;;;0.70;0.70;;;9.30;42.20;;;;;;5060923;28;20621;-44
2022/04/03 08:33:05;;;;;;;0.90;0.70;;;9.40;42.00;;;;;;5060204;28;20281;-44
2022/04/03 08:35:38;;;;;;;1.20;0.80;;;9.50;41.80;;;;;;5060158;28;20210;-42
2022/04/03 08:38:07;;;;;;;1.40;0.83;;;9.70;41.80;;;;;;5060782;28;20280;-43
2022/04/03 08:40:35;;;;;;;0.70;0.63;;;9.70;41.60;;;;;;5055145;28;20602;-44
2022/04/03 08:43:04;;;;;;;1.47;0.90;;;9.70;41.70;;;;;;5063228;28;20225;-44
2022/04/03 08:45:31;;;;;;;2.20;1.23;;;9.60;41.70;;;;;;5067604;28;20189;-43
2022/04/03 08:48:00;;;;;;;0.93;0.93;;;9.60;41.30;;;;;;5066181;28;20206;-41
2022/04/03 08:50:30;;;;;;;1.03;0.93;;;9.50;41.20;;;;;;5069151;28;20228;-44
2022/04/03 08:53:00;;;;;;;0.93;0.90;;;9.50;41.10;;;;;;5069105;28;20200;-46
2022/04/03 08:55:28;;;;;;;2.77;0.90;;;9.50;41.00;;;;;;5068572;28;20249;-43
2022/04/03 08:57:56;;;;;;;1.30;0.80;;;9.50;40.50;;;;;;5067560;28;20190;-43
2022/04/03 09:00:24;;;;;;;0.80;0.80;;;9.60;40.00;;;;;;5067542;28;20688;-43
2022/04/03 09:02:51;;;;;;;0.80;0.80;;;9.70;40.00;;;;;;5064593;28;20197;-49
2022/04/03 09:05:19;;;;;;;1.10;1.00;;;9.90;39.80;;;;;;5066586;28;20699;-49
2022/04/03 09:07:59;;;;;;;0.97;0.90;;;10.00;38.10;;;;;;5065473;28;20198;-51
2022/04/03 09:10:28;;;;;;;1.13;1.00;;;10.00;37.90;;;;;;5061413;28;20197;-46
2022/04/03 09:12:55;;;;;;;0.97;0.90;;;10.00;37.70;;;;;;5065576;28;20249;-45
2022/04/03 09:15:24;;;;;;;0.70;0.70;;;10.00;37.30;;;;;;5065556;28;20229;-46
2022/04/03 09:17:53;;;;;;;0.70;0.70;;;10.10;37.40;;;;;;5059197;28;20213;-44
2022/04/03 09:20:22;;;;;;;0.73;0.67;;;10.20;37.40;;;;;;5058145;28;20198;-44
2022/04/03 09:22:52;;;;;;;0.60;0.57;;;10.30;37.30;;;;;;5058827;28;20195;-43
2022/04/03 09:25:26;;;;;;;1.00;0.80;;;10.30;37.40;;;;;;5064476;28;20196;-43
2022/04/03 09:27:57;;;;;;;1.60;0.90;;;10.50;37.50;;;;;;5058431;28;20206;-43
2022/04/03 09:30:29;;;;;;;1.80;0.80;;;10.60;37.10;;;;;;5061544;28;20209;-42
2022/04/03 09:32:58;;;;;;;1.60;0.60;;;10.70;36.50;;;;;;5057139;28;20512;-44
2022/04/03 09:35:27;;;;;;;0.80;0.80;;;10.80;36.50;;;;;;5060020;28;20656;-45
2022/04/03 09:38:08;;;;;;;0.70;0.70;;;11.00;36.70;;;;;;5058526;28;20300;-46
2022/04/03 09:40:36;;;;;;;1.37;1.20;;;11.30;36.70;;;;;;5054015;28;20207;-46
2022/04/03 09:43:16;;;;;;;1.83;1.00;;;11.40;35.20;;;;;;5062569;28;20205;-43
2022/04/03 09:45:47;;;;;;;1.00;0.87;;;11.50;35.10;;;;;;5056885;28;20200;-42
2022/04/03 09:48:23;;;;;;;1.40;0.87;;;11.60;34.80;;;;;;5056593;28;20590;-46
2022/04/03 09:51:11;;;;;;;2.40;1.57;;;11.60;34.80;;;;;;5068371;28;20276;-46
2022/04/03 09:53:44;;;;;;;2.33;1.30;;;11.60;34.50;;;;;;5062480;28;20214;-44
2022/04/03 09:56:13;;;;;;;3.73;1.10;;;11.50;34.60;;;;;;5069993;28;20227;-42
2022/04/03 09:58:59;;;;;;;1.17;1.07;;;11.40;34.90;;;;;;5069527;28;20200;-46
2022/04/03 10:01:29;;;;;;;2.67;1.20;;;11.40;35.10;;;;;;5067859;28;20208;-44
2022/04/03 10:03:59;;;;;;;3.33;1.20;;;11.30;34.50;;;;;;5070174;28;20207;-43
2022/04/03 10:06:27;;;;;;;2.60;1.00;;;11.30;34.60;;;;;;5067513;28;20201;-41
2022/04/03 10:08:54;;;;;;;1.10;1.00;;;11.30;34.80;;;;;;5070039;28;20284;-41
2022/04/03 10:11:22;;;;;;;1.10;0.90;;;11.50;35.10;;;;;;5066193;28;20550;-44
2022/04/03 10:13:49;;;;;;;0.80;0.80;;;11.70;35.00;;;;;;5070030;28;20208;-44
2022/04/03 10:16:19;;;;;;;2.53;1.20;;;12.00;34.70;;;;;;5069214;28;20296;-45
2022/04/03 10:18:47;;;;;;;1.80;1.57;;;12.00;32.90;;;;;;5068378;28;20284;-50
2022/04/03 10:21:20;;;;;;;2.67;1.00;;;12.00;33.30;;;;;;5064868;28;20210;-43
2022/04/03 10:23:48;;;;;;;1.33;0.97;;;12.10;33.80;;;;;;5066997;28;20297;-44
2022/04/03 10:26:19;;;;;;;1.83;1.20;;;12.20;33.90;;;;;;5067937;28;20203;-44
2022/04/03 10:28:51;;;;;;;0.83;0.83;;;12.20;34.00;;;;;;5066398;28;20201;-47
2022/04/03 10:31:20;;;;;;;1.27;1.17;;;12.20;34.00;;;;;;5063635;28;20205;-44
2022/04/03 10:33:50;;;;;;;0.87;0.87;;;12.20;34.00;;;;;;5068242;28;20207;-44
2022/04/03 10:36:25;;;;;;;2.43;1.40;;;12.20;34.10;;;;;;5063284;28;20206;-45
2022/04/03 10:38:59;;;;;;;3.00;1.20;;;12.20;33.90;;;;;;5061686;28;20223;-43
2022/04/03 10:41:28;;;;;;;0.67;0.67;;;12.20;33.40;;;;;;5069260;28;20198;-42
2022/04/03 10:44:22;;;;;;;1.30;1.20;;;12.30;33.60;;;;;;5072647;28;20213;-43
2022/04/03 10:47:22;;;;;;;1.27;1.17;;;12.40;32.80;;;;;;5053159;28;20233;-43
2022/04/03 10:49:58;;;;;;;1.07;1.00;;;12.50;33.00;;;;;;5067861;28;20191;-41
2022/04/03 10:52:27;;;;;;;1.20;1.10;;;12.50;33.10;;;;;;5072388;28;20260;-46
2022/04/03 10:54:57;;;;;;;2.10;1.17;;;12.70;33.30;;;;;;5070435;28;20197;-41
2022/04/03 10:57:36;;;;;;;4.40;1.23;;;12.80;33.10;;;;;;5071814;28;20193;-43
2022/04/03 11:00:49;;;;;;;2.53;1.17;;;12.80;32.50;;;;;;5068422;28;20207;-44
2022/04/03 11:03:35;;;;;;;2.27;1.10;;;12.70;32.50;;;;;;5040579;28;20245;-45
2022/04/03 11:06:27;;;;;;;0.90;0.80;;;12.80;32.60;;;;;;5067447;28;20196;-42
2022/04/03 11:09:11;;;;;;;1.17;1.10;;;12.90;32.80;;;;;;5064291;28;20193;-43
2022/04/03 11:11:53;;;;;;;1.07;1.00;;;12.90;32.80;;;;;;5068146;28;20289;-45
2022/04/03 11:14:49;;;;;;;3.63;1.83;;;12.90;32.60;;;;;;5063767;28;20716;-46
2022/04/03 11:17:16;;;;;;;3.80;2.10;;;12.70;32.10;;;;;;5066664;28;20683;-44
2022/04/03 11:19:46;;;;;;;1.87;1.73;;;12.50;32.30;;;;;;5059492;28;20240;-44
2022/04/03 11:22:15;;;;;;;3.03;2.10;;;12.40;32.70;;;;;;5065127;28;20196;-49
2022/04/03 11:24:43;;;;;;;1.70;1.60;;;12.30;32.80;;;;;;5061204;28;20206;-43
2022/04/03 11:27:10;;;;;;;1.50;1.40;;;12.20;32.70;;;;;;5064208;28;20206;-43
2022/04/03 11:29:37;;;;;;;1.30;0.90;;;12.20;33.00;;;;;;5059795;28;20248;-42
2022/04/03 11:32:07;;;;;;;2.20;1.10;;;12.30;33.20;;;;;;5063087;28;20204;-42
2022/04/03 11:34:35;;;;;;;1.53;0.90;;;12.40;33.30;;;;;;5057896;28;20197;-42
2022/04/03 11:37:05;;;;;;;1.10;1.00;;;12.60;33.60;;;;;;5061533;28;20615;-42
2022/04/03 11:39:34;;;;;;;0.80;0.80;;;12.70;33.60;;;;;;5058004;28;20190;-43
2022/04/03 11:42:07;;;;;;;0.90;0.80;;;12.90;33.70;;;;;;5069463;28;20580;-45
2022/04/03 11:44:36;;;;;;;1.17;0.97;;;13.10;33.60;;;;;;5071732;28;20204;-43
2022/04/03 11:47:04;;;;;;;1.73;0.90;;;13.30;33.50;;;;;;5069389;28;20228;-43
2022/04/03 11:49:34;;;;;;;0.70;0.70;;;13.30;33.30;;;;;;5067955;28;20200;-43
2022/04/03 11:52:08;;;;;;;1.23;0.90;;;13.30;33.20;;;;;;5069400;28;20231;-45
2022/04/03 11:54:35;;;;;;;1.60;1.10;;;13.30;33.10;;;;;;5069713;28;20276;-42
2022/04/03 11:57:04;;;;;;;0.93;0.90;;;13.20;32.70;;;;;;5068739;28;20652;-45
2022/04/03 11:59:34;;;;;;;1.00;0.90;;;13.10;32.30;;;;;;5067896;28;20284;-48
2022/04/03 12:02:10;;;;;;;1.63;1.20;;;13.10;32.10;;;;;;5067720;28;20205;-49
2022/04/03 12:04:41;;;;;;;2.00;0.80;;;12.90;32.30;;;;;;5063305;28;20586;-42
2022/04/03 12:07:13;;;;;;;0.97;0.90;;;12.80;32.60;;;;;;5063010;28;20201;-43
2022/04/03 12:09:41;;;;;;;1.47;0.70;;;12.60;32.80;;;;;;5063232;28;20204;-41
2022/04/03 12:12:10;;;;;;;0.80;0.80;;;12.50;33.10;;;;;;5067350;28;20246;-45
2022/04/03 12:14:40;;;;;;;1.27;1.17;;;12.50;33.20;;;;;;5061307;28;20229;-45
2022/04/03 12:17:09;;;;;;;0.90;0.90;;;12.40;33.30;;;;;;5071570;28;20199;-43
2022/04/03 12:19:38;;;;;;;0.70;0.70;;;12.30;33.30;;;;;;5057370;28;20563;-44
2022/04/03 12:22:08;;;;;;;1.10;1.00;;;12.20;33.60;;;;;;5065586;28;20192;-42
2022/04/03 12:24:38;;;;;;;0.93;0.90;;;12.00;33.60;;;;;;5064969;28;20239;-44
2022/04/03 12:27:12;;;;;;;2.17;1.20;;;11.90;33.70;;;;;;5064200;28;20217;-43
2022/04/03 12:29:41;;;;;;;3.43;1.00;;;11.90;33.90;;;;;;5060232;28;20277;-43
2022/04/03 12:32:10;;;;;;;2.87;1.20;;;11.90;34.10;;;;;;5061730;28;20234;-46
2022/04/03 12:34:40;;;;;;;1.30;1.20;;;12.00;34.20;;;;;;5058337;28;20195;-50
2022/04/03 12:37:09;;;;;;;1.23;1.00;;;12.00;34.10;;;;;;5060287;28;20203;-48
2022/04/03 12:39:39;;;;;;;1.17;1.00;;;11.90;33.90;;;;;;5058831;28;20561;-47
2022/04/03 12:42:32;;;;;;;3.43;1.30;;;11.80;33.90;;;;;;5056193;28;20614;-46
2022/04/03 12:45:01;;;;;;;1.17;1.10;;;11.80;34.00;;;;;;5068473;28;20643;-51
2022/04/03 12:47:42;;;;;;;1.87;1.10;;;11.80;34.10;;;;;;5070551;28;20293;-43
2022/04/03 12:50:18;;;;;;;1.23;0.97;;;11.90;34.40;;;;;;5066711;28;20276;-49
2022/04/03 12:52:51;;;;;;;1.20;0.80;;;11.90;34.40;;;;;;5069642;28;20197;-43
2022/04/03 12:55:48;;;;;;;1.30;1.20;;;11.80;34.10;;;;;;5068047;28;20291;-47
2022/04/03 12:58:35;;;;;;;1.13;1.03;;;11.80;34.30;;;;;;5066226;28;20186;-46
2022/04/03 13:01:09;;;;;;;1.43;0.73;;;11.80;34.30;;;;;;5067780;28;20249;-44
2022/04/03 13:03:39;;;;;;;0.90;0.90;;;11.80;34.10;;;;;;5066131;28;20216;-46